Time;durP1;ratioP1;P1;durP2;ratioP2;P2;SDS_P1;SDS_P2;PMS_P1;PMS_P2;Temp;Humidity;BMP_temperature;BMP_pressure;BME280_temperature;BME280_humidity;BME280_pressure;Samples;Min_cycle;Max_cycle;Signal;HPM_P1;HPM_P2
2022/07/13 00:02:05;;;;;;;2.42;1.90;;;21.50;1.00;;;;;;5089719;28;20024;-77
2022/07/13 00:04:31;;;;;;;1.88;1.63;;;21.50;1.00;;;;;;5090016;28;20477;-77
2022/07/13 00:06:56;;;;;;;2.33;1.70;;;21.40;1.00;;;;;;5089650;28;20384;-76
2022/07/13 00:09:22;;;;;;;1.92;1.40;;;21.30;1.00;;;;;;5089540;28;20035;-77
2022/07/13 00:11:47;;;;;;;1.90;1.50;;;21.30;1.00;;;;;;5091958;28;20020;-77
2022/07/13 00:14:13;;;;;;;2.80;1.90;;;21.20;1.00;;;;;;5089977;28;20024;-78
2022/07/13 00:16:39;;;;;;;5.88;1.90;;;21.20;1.00;;;;;;5089729;28;20036;-77
2022/07/13 00:19:04;;;;;;;1.50;1.40;;;21.20;1.00;;;;;;5089743;28;20111;-77
2022/07/13 00:21:30;;;;;;;2.83;1.60;;;21.10;1.00;;;;;;5089996;28;20107;-77
2022/07/13 00:23:55;;;;;;;2.05;1.70;;;21.20;1.00;;;;;;5091077;28;20024;-77
2022/07/13 00:26:21;;;;;;;1.92;1.75;;;21.30;1.00;;;;;;5090719;28;20468;-77
2022/07/13 00:28:47;;;;;;;2.92;1.80;;;21.20;1.00;;;;;;5088342;28;20047;-77
2022/07/13 00:31:12;;;;;;;3.20;1.55;;;21.20;1.00;;;;;;5089617;28;20043;-77
2022/07/13 00:33:38;;;;;;;3.75;1.60;;;21.30;1.00;;;;;;5089646;28;20072;-77
2022/07/13 00:36:03;;;;;;;6.97;1.73;;;21.20;1.00;;;;;;5089578;28;20503;-77
2022/07/13 00:38:29;;;;;;;2.88;1.70;;;21.20;1.00;;;;;;5073329;28;20107;-77
2022/07/13 00:40:55;;;;;;;3.17;1.77;;;21.20;1.00;;;;;;5089424;28;20504;-77
2022/07/13 00:43:20;;;;;;;2.05;1.60;;;21.10;1.00;;;;;;5090463;28;20035;-77
2022/07/13 00:45:46;;;;;;;2.42;1.52;;;21.00;1.00;;;;;;5093627;28;20533;-77
2022/07/13 00:48:12;;;;;;;2.10;1.75;;;21.00;1.00;;;;;;5093495;28;20028;-77
2022/07/13 00:50:39;;;;;;;2.05;1.55;;;21.00;1.00;;;;;;5095462;28;20066;-77
2022/07/13 00:53:05;;;;;;;3.85;1.80;;;21.00;1.00;;;;;;5092833;28;20028;-77
2022/07/13 00:55:32;;;;;;;2.65;1.70;;;21.00;1.00;;;;;;5093480;28;20034;-77
2022/07/13 00:57:58;;;;;;;4.00;1.65;;;20.80;1.00;;;;;;5093162;28;20067;-77
2022/07/13 01:00:24;;;;;;;3.60;1.70;;;20.70;1.00;;;;;;5093314;28;20032;-77
2022/07/13 01:02:50;;;;;;;2.65;2.00;;;20.70;1.00;;;;;;5095122;28;20034;-77
2022/07/13 01:05:15;;;;;;;4.50;1.92;;;20.60;1.00;;;;;;5093652;28;20020;-78
2022/07/13 01:07:42;;;;;;;4.30;1.77;;;20.50;1.00;;;;;;5091419;28;20031;-77
2022/07/13 01:10:10;;;;;;;4.32;1.73;;;20.40;1.00;;;;;;5092883;28;20031;-77
2022/07/13 01:12:37;;;;;;;3.10;1.60;;;20.20;1.00;;;;;;5093134;28;20712;-78
2022/07/13 01:15:05;;;;;;;1.88;1.63;;;20.10;1.00;;;;;;5092844;28;20104;-77
2022/07/13 01:17:32;;;;;;;4.40;1.75;;;20.10;1.00;;;;;;5094964;28;20088;-77
2022/07/13 01:19:58;;;;;;;2.30;1.60;;;20.30;1.00;;;;;;5092854;28;20548;-77
2022/07/13 01:22:29;;;;;;;2.33;1.52;;;20.20;1.00;;;;;;5092488;28;20070;-76
2022/07/13 01:24:55;;;;;;;4.13;1.85;;;20.20;1.00;;;;;;5092680;28;20024;-77
2022/07/13 01:27:21;;;;;;;2.45;1.70;;;20.30;1.00;;;;;;5092635;28;20029;-77
2022/07/13 01:29:47;;;;;;;3.05;1.85;;;20.30;1.00;;;;;;5094727;28;20046;-77
2022/07/13 01:32:13;;;;;;;2.08;1.80;;;20.20;1.00;;;;;;5091422;28;20506;-77
2022/07/13 01:34:39;;;;;;;1.60;1.50;;;20.10;1.00;;;;;;5074643;28;20032;-77
2022/07/13 01:37:04;;;;;;;2.92;1.70;;;20.10;1.00;;;;;;5091982;28;20039;-77
2022/07/13 01:39:30;;;;;;;2.13;1.92;;;19.90;1.00;;;;;;5092768;28;20111;-77
2022/07/13 01:41:56;;;;;;;2.22;1.63;;;19.80;1.00;;;;;;5093676;28;20032;-77
2022/07/13 01:44:21;;;;;;;1.92;1.80;;;19.70;1.00;;;;;;5093825;28;20071;-77
2022/07/13 01:46:47;;;;;;;2.63;1.90;;;19.60;1.00;;;;;;5090975;28;20081;-76
2022/07/13 01:49:12;;;;;;;2.03;1.83;;;19.70;1.00;;;;;;5092047;28;20016;-77
2022/07/13 01:51:39;;;;;;;3.40;1.80;;;19.70;1.00;;;;;;5092076;28;20028;-77
2022/07/13 01:54:05;;;;;;;4.00;2.20;;;19.70;1.00;;;;;;5092607;28;20426;-76
2022/07/13 01:56:32;;;;;;;3.70;1.70;;;19.80;1.00;;;;;;5093169;28;20028;-77
2022/07/13 01:58:59;;;;;;;3.45;1.98;;;19.70;1.00;;;;;;5092063;28;20024;-77
2022/07/13 02:01:24;;;;;;;2.30;2.00;;;19.60;1.00;;;;;;5091944;28;20031;-77
2022/07/13 02:03:50;;;;;;;3.15;2.00;;;19.50;1.00;;;;;;5091912;28;20028;-77
2022/07/13 02:06:16;;;;;;;4.60;1.92;;;19.60;1.00;;;;;;5092036;28;20487;-77
2022/07/13 02:08:41;;;;;;;2.80;1.98;;;19.60;1.00;;;;;;5094241;28;20464;-77
2022/07/13 02:11:07;;;;;;;1.85;1.75;;;19.60;1.00;;;;;;5092011;28;20039;-77
2022/07/13 02:13:32;;;;;;;1.98;1.55;;;19.60;1.00;;;;;;5091733;28;20035;-76
2022/07/13 02:15:58;;;;;;;2.80;1.73;;;19.50;1.00;;;;;;5091755;28;20079;-77
2022/07/13 02:18:25;;;;;;;3.90;1.85;;;19.60;1.00;;;;;;5091324;28;20038;-76
2022/07/13 02:20:50;;;;;;;2.15;1.90;;;19.60;1.00;;;;;;5093252;28;20028;-77
2022/07/13 02:23:16;;;;;;;3.03;2.10;;;19.50;1.00;;;;;;5092244;28;20035;-77
2022/07/13 02:25:41;;;;;;;2.35;2.00;;;19.60;1.00;;;;;;5090099;28;20565;-77
2022/07/13 02:28:07;;;;;;;2.90;1.80;;;19.50;1.00;;;;;;5091534;28;20044;-77
2022/07/13 02:30:34;;;;;;;1.80;1.65;;;19.40;1.00;;;;;;5091683;28;20062;-77
2022/07/13 02:32:59;;;;;;;2.33;2.00;;;19.40;1.00;;;;;;5091549;28;20100;-77
2022/07/13 02:35:25;;;;;;;1.90;1.77;;;19.50;1.00;;;;;;5092462;28;20028;-76
2022/07/13 02:37:51;;;;;;;1.95;1.85;;;19.50;1.00;;;;;;5091602;28;20036;-77
2022/07/13 02:40:17;;;;;;;2.47;1.80;;;19.50;1.00;;;;;;5091239;28;20020;-77
2022/07/13 02:42:43;;;;;;;4.60;1.98;;;19.50;1.00;;;;;;5091263;28;20064;-77
2022/07/13 02:45:08;;;;;;;2.85;2.03;;;19.40;1.00;;;;;;5091338;28;20438;-77
2022/07/13 02:47:34;;;;;;;3.30;1.60;;;19.20;1.00;;;;;;5092969;28;20051;-78
2022/07/13 02:50:00;;;;;;;3.25;1.88;;;19.10;1.00;;;;;;5090950;28;20545;-77
2022/07/13 02:52:26;;;;;;;2.50;2.03;;;19.10;1.00;;;;;;5091113;28;20442;-76
2022/07/13 02:54:51;;;;;;;2.20;2.00;;;19.00;1.00;;;;;;5091127;28;20031;-77
2022/07/13 02:57:17;;;;;;;1.95;1.85;;;18.80;1.00;;;;;;5091166;28;20048;-77
2022/07/13 02:59:43;;;;;;;2.65;1.95;;;18.70;1.00;;;;;;5093587;28;20112;-77
2022/07/13 03:02:08;;;;;;;2.42;1.90;;;18.50;1.00;;;;;;5090893;28;20043;-77
2022/07/13 03:04:35;;;;;;;2.25;2.05;;;18.50;1.00;;;;;;5089543;28;20073;-77
2022/07/13 03:07:02;;;;;;;2.55;2.05;;;18.40;1.00;;;;;;5090307;28;20543;-77
2022/07/13 03:09:28;;;;;;;2.50;1.88;;;18.20;1.00;;;;;;5071315;28;20401;-77
2022/07/13 03:11:54;;;;;;;2.72;2.20;;;18.40;1.00;;;;;;5092065;28;20028;-77
2022/07/13 03:14:20;;;;;;;3.13;2.05;;;18.30;1.00;;;;;;5091440;28;20031;-77
2022/07/13 03:16:46;;;;;;;3.28;2.00;;;18.30;1.00;;;;;;5090018;28;20105;-77
2022/07/13 03:19:11;;;;;;;3.25;2.20;;;18.30;1.00;;;;;;5090804;28;20169;-77
2022/07/13 03:21:37;;;;;;;2.58;2.10;;;18.40;1.00;;;;;;5090569;28;20115;-76
2022/07/13 03:24:03;;;;;;;2.72;2.20;;;18.40;1.00;;;;;;5090390;28;20028;-77
2022/07/13 03:26:29;;;;;;;2.78;2.13;;;18.30;1.00;;;;;;5092574;28;20020;-76
2022/07/13 03:28:55;;;;;;;3.00;2.08;;;18.20;1.00;;;;;;5090557;28;20059;-77
2022/07/13 03:31:21;;;;;;;2.22;2.03;;;18.30;1.00;;;;;;5089802;28;20027;-76
2022/07/13 03:33:46;;;;;;;2.40;2.17;;;18.30;1.00;;;;;;5090357;28;20024;-77
2022/07/13 03:36:13;;;;;;;3.05;2.00;;;18.40;1.00;;;;;;5090323;28;20020;-77
2022/07/13 03:38:38;;;;;;;3.05;2.20;;;18.30;1.00;;;;;;5092186;28;20089;-77
2022/07/13 03:41:04;;;;;;;3.13;2.33;;;18.30;1.00;;;;;;5090385;28;20032;-77
2022/07/13 03:43:30;;;;;;;2.55;2.30;;;18.30;1.00;;;;;;5088598;28;20078;-76
2022/07/13 03:45:57;;;;;;;2.92;2.20;;;18.30;1.00;;;;;;5089721;28;20078;-77
2022/07/13 03:48:22;;;;;;;4.63;2.40;;;18.30;1.00;;;;;;5089949;28;20032;-77
2022/07/13 03:50:48;;;;;;;2.58;2.25;;;18.20;1.00;;;;;;5092216;28;20028;-77
2022/07/13 03:53:15;;;;;;;5.05;2.42;;;18.00;1.00;;;;;;5090247;28;20024;-77
2022/07/13 03:55:42;;;;;;;4.53;2.20;;;18.10;1.00;;;;;;5090358;28;20032;-77
2022/07/13 03:58:10;;;;;;;3.58;2.20;;;18.00;1.00;;;;;;5089461;28;20081;-77
2022/07/13 04:00:36;;;;;;;2.35;2.15;;;18.00;1.00;;;;;;5089909;28;20016;-77
2022/07/13 04:03:02;;;;;;;3.47;2.08;;;18.00;1.00;;;;;;5090024;28;20036;-77
2022/07/13 04:05:27;;;;;;;2.97;2.38;;;18.10;1.00;;;;;;5089857;28;20126;-76
2022/07/13 04:07:53;;;;;;;2.85;2.55;;;18.00;1.00;;;;;;5090180;28;20036;-77
2022/07/13 04:10:19;;;;;;;4.10;2.70;;;18.10;1.00;;;;;;5089734;28;20117;-76
2022/07/13 04:12:48;;;;;;;3.97;2.38;;;18.10;1.00;;;;;;5089908;28;20020;-76
2022/07/13 04:15:14;;;;;;;3.13;2.55;;;17.90;1.00;;;;;;5089419;28;20024;-77
2022/07/13 04:17:41;;;;;;;3.55;2.25;;;17.80;1.00;;;;;;5091976;28;20051;-76
2022/07/13 04:20:08;;;;;;;5.43;2.80;;;17.90;1.00;;;;;;5093499;28;20091;-77
2022/07/13 04:22:35;;;;;;;6.53;2.67;;;18.00;1.00;;;;;;5092467;28;20056;-77
2022/07/13 04:25:01;;;;;;;5.18;2.72;;;18.00;1.00;;;;;;5093905;28;20028;-77
2022/07/13 04:27:27;;;;;;;4.30;2.63;;;17.90;1.00;;;;;;5093798;28;20036;-77
2022/07/13 04:29:52;;;;;;;4.90;2.60;;;17.80;1.00;;;;;;5094610;28;20044;-76
2022/07/13 04:32:18;;;;;;;3.60;2.53;;;18.00;1.00;;;;;;5094476;28;20488;-77
2022/07/13 04:34:44;;;;;;;4.07;2.58;;;17.90;1.00;;;;;;5093489;28;20030;-77
2022/07/13 04:37:09;;;;;;;3.70;2.53;;;17.80;1.00;;;;;;5094011;28;20063;-77
2022/07/13 04:39:35;;;;;;;4.45;2.50;;;17.90;1.00;;;;;;5093575;28;20020;-76
2022/07/13 04:42:01;;;;;;;3.45;2.25;;;18.00;1.00;;;;;;5094003;28;20549;-77
2022/07/13 04:44:27;;;;;;;3.00;2.40;;;18.10;1.00;;;;;;5095409;28;20032;-77
2022/07/13 04:46:53;;;;;;;2.88;2.40;;;18.10;1.00;;;;;;5093331;28;20055;-76
2022/07/13 04:49:19;;;;;;;5.40;2.80;;;18.10;1.00;;;;;;5093398;28;20488;-77
2022/07/13 04:51:47;;;;;;;8.73;2.70;;;18.10;1.00;;;;;;5093539;28;20308;-76
2022/07/13 04:54:18;;;;;;;6.85;2.50;;;18.20;1.00;;;;;;5093346;28;20049;-77
2022/07/13 04:56:44;;;;;;;3.47;2.30;;;18.30;1.00;;;;;;5090888;28;20169;-77
2022/07/13 04:59:10;;;;;;;4.35;2.47;;;18.30;1.00;;;;;;5093016;28;20143;-77
2022/07/13 05:01:35;;;;;;;5.45;2.35;;;18.40;1.00;;;;;;5092077;28;20024;-76
2022/07/13 05:04:02;;;;;;;3.40;2.40;;;18.30;1.00;;;;;;5092951;28;20028;-76
2022/07/13 05:06:27;;;;;;;4.35;2.40;;;18.20;1.00;;;;;;5093182;28;20028;-77
2022/07/13 05:08:53;;;;;;;3.55;2.38;;;18.10;1.00;;;;;;5094432;28;20034;-76
2022/07/13 05:11:19;;;;;;;5.57;2.30;;;18.00;1.00;;;;;;5094210;28;20039;-76
2022/07/13 05:13:45;;;;;;;6.82;2.25;;;18.00;1.00;;;;;;5092699;28;20408;-76
2022/07/13 05:16:11;;;;;;;3.13;2.80;;;18.10;1.00;;;;;;5092987;28;20031;-77
2022/07/13 05:18:36;;;;;;;3.70;2.47;;;18.10;1.00;;;;;;5092872;28;20101;-76
2022/07/13 05:21:02;;;;;;;3.10;2.50;;;18.20;1.00;;;;;;5093424;28;20221;-77
2022/07/13 05:23:28;;;;;;;3.42;2.13;;;18.30;1.00;;;;;;5092782;28;20051;-77
2022/07/13 05:25:53;;;;;;;2.85;2.20;;;18.30;1.00;;;;;;5092671;28;20395;-76
2022/07/13 05:28:19;;;;;;;3.15;2.55;;;18.40;1.00;;;;;;5092403;28;20048;-77
2022/07/13 05:30:45;;;;;;;2.88;2.20;;;18.40;1.00;;;;;;5092469;28;20035;-77
2022/07/13 05:33:10;;;;;;;5.82;2.60;;;18.50;1.00;;;;;;5092692;28;20089;-77
2022/07/13 05:35:36;;;;;;;3.28;2.53;;;18.60;1.00;;;;;;5094763;28;20024;-76
2022/07/13 05:38:02;;;;;;;5.07;2.95;;;18.60;1.00;;;;;;5092637;28;20511;-76
2022/07/13 05:40:27;;;;;;;4.95;2.72;;;18.70;1.00;;;;;;5091789;28;20467;-77
2022/07/13 05:42:53;;;;;;;4.60;2.88;;;18.80;1.00;;;;;;5092055;28;20032;-76
2022/07/13 05:45:19;;;;;;;4.95;3.20;;;18.80;1.00;;;;;;5092409;28;20063;-77
2022/07/13 05:47:46;;;;;;;3.95;3.30;;;19.00;1.00;;;;;;5094590;28;20027;-77
2022/07/13 05:50:13;;;;;;;5.70;3.25;;;19.10;1.00;;;;;;5091976;28;20024;-77
2022/07/13 05:52:39;;;;;;;5.68;3.20;;;19.20;1.00;;;;;;5092330;28;20036;-77
2022/07/13 05:55:05;;;;;;;4.07;3.05;;;19.20;1.00;;;;;;5091965;28;20024;-77
2022/07/13 05:57:31;;;;;;;5.43;3.17;;;19.20;1.00;;;;;;5091682;28;20419;-77
2022/07/13 05:59:57;;;;;;;5.65;3.00;;;19.30;1.00;;;;;;5092992;28;20380;-77
2022/07/13 06:02:23;;;;;;;3.72;2.60;;;19.30;1.00;;;;;;5093853;28;20038;-77
2022/07/13 06:04:48;;;;;;;7.78;2.92;;;19.50;1.00;;;;;;5091839;28;20035;-77
2022/07/13 06:07:14;;;;;;;8.75;2.90;;;19.60;1.00;;;;;;5091965;28;20476;-76
2022/07/13 06:09:40;;;;;;;4.80;2.53;;;19.70;1.00;;;;;;5091842;28;20126;-76
2022/07/13 06:12:05;;;;;;;3.05;2.30;;;19.80;1.00;;;;;;5092038;28;20493;-77
2022/07/13 06:14:31;;;;;;;3.95;3.00;;;19.80;1.00;;;;;;5093828;28;20012;-76
2022/07/13 06:16:57;;;;;;;5.07;3.03;;;20.00;1.00;;;;;;5091773;28;20126;-76
2022/07/13 06:19:22;;;;;;;4.82;2.35;;;20.00;1.00;;;;;;5090096;28;20035;-77
2022/07/13 06:21:48;;;;;;;4.68;2.63;;;20.00;1.00;;;;;;5091684;28;20028;-76
2022/07/13 06:24:13;;;;;;;3.35;2.55;;;20.10;1.00;;;;;;5091524;28;20028;-77
2022/07/13 06:26:39;;;;;;;6.55;2.30;;;20.20;1.00;;;;;;5093325;28;20047;-76
2022/07/13 06:29:05;;;;;;;3.25;2.40;;;20.40;1.00;;;;;;5091724;28;20381;-77
2022/07/13 06:31:30;;;;;;;3.38;2.60;;;20.50;1.00;;;;;;5091292;28;20404;-76
2022/07/13 06:33:56;;;;;;;3.80;2.30;;;20.50;1.00;;;;;;5091353;28;20042;-77
2022/07/13 06:36:22;;;;;;;3.83;2.53;;;20.70;1.00;;;;;;5091321;28;20033;-77
2022/07/13 06:38:49;;;;;;;4.88;2.50;;;20.80;1.00;;;;;;5093135;28;20035;-77
2022/07/13 06:41:15;;;;;;;5.13;2.30;;;20.90;1.00;;;;;;5091241;28;20020;-77
2022/07/13 06:43:41;;;;;;;5.40;2.85;;;21.00;1.00;;;;;;5091160;28;20039;-77
2022/07/13 06:46:07;;;;;;;3.55;2.50;;;21.00;1.00;;;;;;5091166;28;20023;-77
2022/07/13 06:48:35;;;;;;;5.63;2.67;;;21.10;1.00;;;;;;5091408;28;20086;-76
2022/07/13 06:51:01;;;;;;;6.13;2.47;;;21.10;1.00;;;;;;5091421;28;20023;-77
2022/07/13 06:53:26;;;;;;;9.43;2.58;;;21.20;1.00;;;;;;5092640;28;20131;-77
2022/07/13 06:55:52;;;;;;;4.32;2.53;;;21.50;1.00;;;;;;5090730;28;20073;-77
2022/07/13 06:58:18;;;;;;;9.48;2.70;;;21.50;1.00;;;;;;5089663;28;20036;-77
2022/07/13 07:00:43;;;;;;;9.18;2.85;;;21.60;1.00;;;;;;5090742;28;20443;-77
2022/07/13 07:03:09;;;;;;;7.32;2.53;;;21.70;1.00;;;;;;5090931;28;20036;-77
2022/07/13 07:05:34;;;;;;;7.30;2.70;;;21.70;1.00;;;;;;5092951;28;20094;-76
2022/07/13 07:08:02;;;;;;;6.30;2.58;;;21.80;1.00;;;;;;5090323;28;20111;-77
2022/07/13 07:10:28;;;;;;;5.68;2.63;;;21.90;1.00;;;;;;5090689;28;20020;-77
2022/07/13 07:12:54;;;;;;;5.20;2.88;;;22.00;1.00;;;;;;5090500;28;20020;-76
2022/07/13 07:15:19;;;;;;;5.90;3.08;;;22.00;1.00;;;;;;5090538;28;20044;-77
2022/07/13 07:17:49;;;;;;;7.00;3.20;;;22.10;1.00;;;;;;5092843;28;20032;-77
2022/07/13 07:20:15;;;;;;;6.38;2.95;;;22.20;1.00;;;;;;5091254;28;20524;-77
2022/07/13 07:22:42;;;;;;;4.70;2.83;;;22.30;1.00;;;;;;5090534;28;20380;-77
2022/07/13 07:25:08;;;;;;;5.22;2.38;;;22.30;1.00;;;;;;5089966;28;20073;-77
2022/07/13 07:27:35;;;;;;;3.60;2.17;;;22.40;1.00;;;;;;5090391;28;20016;-75
2022/07/13 07:30:00;;;;;;;4.32;2.63;;;22.40;1.00;;;;;;5091011;28;20055;-77
2022/07/13 07:32:26;;;;;;;3.60;2.63;;;22.50;1.00;;;;;;5092358;28;20028;-77
2022/07/13 07:34:52;;;;;;;5.35;2.70;;;22.50;1.00;;;;;;5090339;28;20035;-77
2022/07/13 07:37:22;;;;;;;5.43;2.40;;;22.60;1.00;;;;;;5088103;28;20032;-77
2022/07/13 07:39:51;;;;;;;4.70;2.40;;;22.60;1.00;;;;;;5090724;28;20104;-77
2022/07/13 07:42:17;;;;;;;6.13;3.03;;;22.70;1.00;;;;;;5074290;28;20017;-77
2022/07/13 07:44:43;;;;;;;5.18;2.60;;;22.90;1.00;;;;;;5092290;28;20415;-77
2022/07/13 07:47:09;;;;;;;5.38;2.60;;;22.80;1.00;;;;;;5090144;28;20043;-77
2022/07/13 07:49:35;;;;;;;3.47;2.50;;;22.80;1.00;;;;;;5090239;28;20036;-77
2022/07/13 07:52:01;;;;;;;4.25;2.38;;;22.90;1.00;;;;;;5089588;28;20020;-77
2022/07/13 07:54:26;;;;;;;4.35;2.47;;;22.90;1.00;;;;;;5090074;28;20032;-77
2022/07/13 07:56:52;;;;;;;6.13;2.53;;;23.00;1.00;;;;;;5073146;28;20081;-77
2022/07/13 07:59:18;;;;;;;4.85;2.63;;;23.10;1.00;;;;;;5090605;28;20085;-77
2022/07/13 08:01:43;;;;;;;12.02;2.90;;;23.10;1.00;;;;;;5089882;28;20027;-77
2022/07/13 08:04:09;;;;;;;7.70;2.53;;;23.30;1.00;;;;;;5089841;28;20089;-77
2022/07/13 08:06:35;;;;;;;3.90;2.65;;;23.30;1.00;;;;;;5089472;28;20065;-77
2022/07/13 08:09:01;;;;;;;3.05;2.20;;;23.40;1.00;;;;;;5090221;28;20580;-77
2022/07/13 08:11:27;;;;;;;4.63;2.33;;;23.50;1.00;;;;;;5073866;28;20451;-77
2022/07/13 08:13:52;;;;;;;4.32;2.30;;;23.60;1.00;;;;;;5089772;28;20032;-77
2022/07/13 08:16:19;;;;;;;4.13;2.55;;;23.70;1.00;;;;;;5088488;28;20024;-77
2022/07/13 08:18:45;;;;;;;3.33;2.08;;;23.80;1.00;;;;;;5089632;28;20393;-78
2022/07/13 08:21:11;;;;;;;3.88;2.22;;;23.90;1.00;;;;;;5089771;28;20401;-77
2022/07/13 08:23:53;;;;;;;4.40;2.47;;;24.00;1.00;;;;;;5092062;28;20484;-77
2022/07/13 08:26:23;;;;;;;5.13;2.63;;;24.00;1.00;;;;;;5089086;28;20511;-76
2022/07/13 08:28:49;;;;;;;4.13;2.33;;;24.10;1.00;;;;;;5089325;28;20040;-77
2022/07/13 08:31:15;;;;;;;5.32;2.38;;;24.10;1.00;;;;;;5089582;28;20058;-77
2022/07/13 08:39:11;;;;;;;4.82;2.50;;;24.30;1.00;;;;;;5090123;28;20415;-77
2022/07/13 08:41:37;;;;;;;3.45;2.38;;;24.50;1.00;;;;;;5091636;28;20023;-77
2022/07/13 08:44:03;;;;;;;5.85;2.50;;;24.60;1.00;;;;;;5089507;28;20028;-77
2022/07/13 08:46:29;;;;;;;6.38;2.50;;;24.70;1.00;;;;;;5089517;28;20031;-77
2022/07/13 08:48:56;;;;;;;5.22;2.55;;;24.60;1.00;;;;;;5089513;28;20028;-77
2022/07/13 08:51:23;;;;;;;6.13;2.22;;;24.60;1.00;;;;;;5089086;28;20442;-78
2022/07/13 08:53:51;;;;;;;6.00;2.88;;;24.70;1.00;;;;;;5091434;28;20024;-76
2022/07/13 08:56:17;;;;;;;4.13;2.58;;;24.90;1.00;;;;;;5089603;28;20154;-77
2022/07/13 08:58:43;;;;;;;5.57;2.85;;;25.10;1.00;;;;;;5089171;28;20032;-77
2022/07/13 09:01:10;;;;;;;5.90;2.60;;;25.10;1.00;;;;;;5089132;28;20425;-77
2022/07/13 09:03:36;;;;;;;5.90;2.90;;;25.10;1.00;;;;;;5089534;28;20020;-77
2022/07/13 09:06:02;;;;;;;8.52;2.80;;;25.20;1.00;;;;;;5092668;28;20495;-77
2022/07/13 09:08:28;;;;;;;5.15;2.90;;;25.30;1.00;;;;;;5094684;28;20028;-77
2022/07/13 09:10:59;;;;;;;5.63;2.83;;;25.50;1.00;;;;;;5093170;28;20114;-77
2022/07/13 09:13:41;;;;;;;4.63;2.55;;;25.50;1.00;;;;;;5093009;28;20035;-77
2022/07/13 09:16:19;;;;;;;4.18;2.45;;;25.50;1.00;;;;;;5092853;28;20014;-77
2022/07/13 09:18:59;;;;;;;5.88;2.45;;;25.70;1.00;;;;;;5092733;28;20151;-77
2022/07/13 09:21:27;;;;;;;5.07;2.65;;;25.70;1.00;;;;;;5077838;28;20037;-77
2022/07/13 09:23:57;;;;;;;3.05;2.58;;;25.70;1.00;;;;;;5094375;28;20042;-77
2022/07/13 09:26:23;;;;;;;4.70;2.92;;;25.90;1.00;;;;;;5094029;28;20173;-77
2022/07/13 09:28:51;;;;;;;3.08;2.42;;;25.90;1.00;;;;;;5092925;28;20040;-78
2022/07/13 09:31:18;;;;;;;3.40;2.40;;;25.80;1.00;;;;;;5092588;28;20024;-77
2022/07/13 09:33:46;;;;;;;6.95;2.83;;;25.90;1.00;;;;;;5090814;28;20036;-77
2022/07/13 09:36:13;;;;;;;4.30;2.60;;;26.00;1.00;;;;;;5092606;28;20024;-77
2022/07/13 09:38:42;;;;;;;2.40;2.20;;;26.00;1.00;;;;;;5094529;28;20047;-77
2022/07/13 09:41:34;;;;;;;3.42;2.40;;;26.10;1.00;;;;;;5092533;28;20077;-77
2022/07/13 09:47:05;;;;;;;3.40;2.22;;;26.20;1.00;;;;;;5092881;28;20101;-77
2022/07/13 09:49:42;;;;;;;4.53;2.50;;;26.20;1.00;;;;;;5091946;28;20103;-77
2022/07/13 09:52:10;;;;;;;4.90;2.65;;;26.40;1.00;;;;;;5092166;28;20395;-77
2022/07/13 09:54:40;;;;;;;4.32;2.50;;;26.40;1.00;;;;;;5092151;28;20032;-77
2022/07/13 09:57:09;;;;;;;4.70;2.95;;;26.50;1.00;;;;;;5092344;28;20031;-77
2022/07/13 09:59:39;;;;;;;3.38;2.33;;;26.50;1.00;;;;;;5094314;28;20433;-78
2022/07/13 10:02:05;;;;;;;5.55;2.78;;;26.70;1.00;;;;;;5092332;28;20032;-77
2022/07/13 10:04:35;;;;;;;5.50;2.60;;;26.80;1.00;;;;;;5091660;28;20081;-77
2022/07/13 10:07:01;;;;;;;4.38;2.58;;;26.80;1.00;;;;;;5091861;28;20051;-77
2022/07/13 10:09:30;;;;;;;3.22;2.42;;;26.90;1.00;;;;;;5091820;28;20044;-77
2022/07/13 10:12:00;;;;;;;4.88;2.40;;;27.00;1.00;;;;;;5092925;28;20391;-77
2022/07/13 10:14:26;;;;;;;3.10;2.22;;;27.00;1.00;;;;;;5091513;28;20020;-77
2022/07/13 10:17:01;;;;;;;2.50;2.30;;;26.90;1.00;;;;;;5090032;28;20067;-77
2022/07/13 10:19:29;;;;;;;4.03;2.22;;;27.00;1.00;;;;;;5092074;28;20407;-77
2022/07/13 10:22:09;;;;;;;4.10;2.42;;;27.20;1.00;;;;;;5091686;28;20027;-78
2022/07/13 10:24:36;;;;;;;3.38;2.40;;;27.30;1.00;;;;;;5091732;28;20065;-77
2022/07/13 10:27:31;;;;;;;4.30;2.03;;;27.70;1.00;;;;;;5091785;28;20115;-78
2022/07/13 10:29:58;;;;;;;2.38;2.17;;;27.60;1.00;;;;;;5089762;28;20060;-77
2022/07/13 10:32:29;;;;;;;2.15;1.95;;;27.60;1.00;;;;;;5092301;28;20032;-77
2022/07/13 10:35:11;;;;;;;2.20;2.00;;;27.60;1.00;;;;;;5091197;28;20024;-77
2022/07/13 10:37:58;;;;;;;3.70;2.10;;;27.70;1.00;;;;;;5091426;28;20537;-77
2022/07/13 10:40:34;;;;;;;4.72;2.38;;;27.80;1.00;;;;;;5091546;28;20027;-78
2022/07/13 10:43:01;;;;;;;5.40;2.38;;;27.90;1.00;;;;;;5091532;28;20028;-77
2022/07/13 10:45:45;;;;;;;2.40;2.20;;;28.00;1.00;;;;;;5091492;28;20117;-78
2022/07/13 10:48:20;;;;;;;2.92;2.47;;;28.00;1.00;;;;;;5090808;28;20016;-77
2022/07/13 10:50:47;;;;;;;7.53;2.55;;;28.00;1.00;;;;;;5089117;28;20028;-78
2022/07/13 10:53:17;;;;;;;3.30;2.00;;;28.10;1.00;;;;;;5090989;28;20028;-77
2022/07/13 10:55:49;;;;;;;4.07;2.13;;;28.20;1.00;;;;;;5091001;28;20028;-77
2022/07/13 10:58:30;;;;;;;3.97;1.90;;;28.20;1.00;;;;;;5091315;28;20044;-77
2022/07/13 11:00:57;;;;;;;1.90;1.80;;;28.30;1.00;;;;;;5090490;28;20032;-77
2022/07/13 11:03:43;;;;;;;2.92;1.77;;;28.50;1.00;;;;;;5090951;28;20378;-78
2022/07/13 11:06:15;;;;;;;3.28;1.85;;;28.50;1.00;;;;;;5091129;28;20044;-78
2022/07/13 11:08:42;;;;;;;4.57;1.60;;;28.40;1.00;;;;;;5092820;28;20024;-77
2022/07/13 11:11:16;;;;;;;1.90;1.80;;;28.50;1.00;;;;;;5090687;28;20455;-77
2022/07/13 11:13:46;;;;;;;2.63;1.67;;;28.50;1.00;;;;;;5090529;28;20039;-77
2022/07/13 11:16:13;;;;;;;1.90;1.70;;;28.60;1.00;;;;;;5090329;28;20499;-77
2022/07/13 11:18:41;;;;;;;2.38;1.80;;;28.70;1.00;;;;;;5090569;28;20040;-77
2022/07/13 11:21:18;;;;;;;4.72;1.70;;;28.60;1.00;;;;;;5090625;28;20020;-78
2022/07/13 11:26:52;;;;;;;1.85;1.70;;;28.70;1.00;;;;;;5092760;28;20093;-78
2022/07/13 11:29:48;;;;;;;1.50;1.40;;;28.90;1.00;;;;;;5089320;28;20075;-78
2022/07/13 11:32:20;;;;;;;1.98;1.50;;;29.00;1.00;;;;;;5088928;28;20103;-78
2022/07/13 11:34:46;;;;;;;1.92;1.60;;;29.20;1.00;;;;;;5090304;28;20073;-77
2022/07/13 11:37:13;;;;;;;2.97;1.45;;;29.50;1.00;;;;;;5090104;28;20550;-78
2022/07/13 11:39:39;;;;;;;2.58;1.70;;;29.60;1.00;;;;;;5090339;28;20016;-77
2022/07/13 11:42:06;;;;;;;1.70;1.42;;;29.80;1.00;;;;;;5072154;28;20058;-78
2022/07/13 11:44:34;;;;;;;1.45;1.35;;;29.70;1.00;;;;;;5091897;28;20019;-78
2022/07/13 11:47:06;;;;;;;3.47;1.52;;;30.00;1.00;;;;;;5090586;28;20507;-78
2022/07/13 11:49:46;;;;;;;4.50;1.70;;;30.10;1.00;;;;;;5090060;28;20077;-77
2022/07/13 11:52:27;;;;;;;1.50;1.40;;;30.30;1.00;;;;;;5089932;28;20024;-77
2022/07/13 11:55:03;;;;;;;3.05;1.80;;;30.60;1.00;;;;;;5090050;28;20574;-77
2022/07/13 11:57:31;;;;;;;3.33;1.70;;;31.10;1.00;;;;;;5089853;28;20076;-78
2022/07/13 12:00:04;;;;;;;4.07;1.80;;;31.10;1.00;;;;;;5090605;28;20392;-78
2022/07/13 12:02:30;;;;;;;2.60;1.50;;;32.80;1.00;;;;;;5089893;28;20104;-78
2022/07/13 12:04:56;;;;;;;3.58;1.60;;;35.10;1.00;;;;;;5090010;28;20489;-78
2022/07/13 12:07:28;;;;;;;4.05;1.50;;;36.30;1.00;;;;;;5090085;28;20062;-78
2022/07/13 12:10:05;;;;;;;2.13;1.67;;;36.90;1.00;;;;;;5088204;28;20017;-77
2022/07/13 12:12:37;;;;;;;2.40;1.73;;;38.30;1.00;;;;;;5089740;28;20103;-78
2022/07/13 12:15:04;;;;;;;1.98;1.77;;;39.00;1.00;;;;;;5089821;28;20031;-78
2022/07/13 12:17:41;;;;;;;4.07;1.60;;;39.70;1.00;;;;;;5089584;28;20044;-78
2022/07/13 12:20:18;;;;;;;1.90;1.52;;;40.20;1.00;;;;;;5089562;28;20114;-78
2022/07/13 12:22:59;;;;;;;2.00;1.90;;;40.20;1.00;;;;;;5089500;28;20044;-78
2022/07/13 12:25:32;;;;;;;1.70;1.60;;;40.20;1.00;;;;;;5089984;28;20021;-78
2022/07/13 12:28:01;;;;;;;3.25;1.60;;;39.90;1.00;;;;;;5089065;28;20071;-78
2022/07/13 12:30:28;;;;;;;2.80;1.67;;;40.60;1.00;;;;;;5089633;28;20032;-78
2022/07/13 12:33:14;;;;;;;2.72;1.70;;;40.60;1.00;;;;;;5091046;28;20028;-79
2022/07/13 12:35:40;;;;;;;2.05;1.70;;;40.90;1.00;;;;;;5091645;28;20078;-78
2022/07/13 12:38:12;;;;;;;1.60;1.50;;;41.30;1.00;;;;;;5071253;28;20036;-78
2022/07/13 12:40:44;;;;;;;2.45;1.60;;;41.90;1.00;;;;;;5092205;28;20020;-78
2022/07/13 12:43:22;;;;;;;2.03;1.63;;;42.20;1.00;;;;;;5093286;28;20051;-79
2022/07/13 12:45:52;;;;;;;2.10;1.60;;;42.30;1.00;;;;;;5093567;28;20050;-79
2022/07/13 12:48:24;;;;;;;1.88;1.60;;;42.70;1.00;;;;;;5077429;28;20116;-79
2022/07/13 12:51:05;;;;;;;3.15;1.50;;;42.80;1.00;;;;;;5091971;28;20031;-79
2022/07/13 12:53:58;;;;;;;2.83;1.60;;;42.80;1.00;;;;;;5093916;28;20028;-78
2022/07/13 12:56:29;;;;;;;2.30;1.50;;;41.10;1.00;;;;;;5094442;28;20042;-78
2022/07/13 12:58:58;;;;;;;2.80;1.70;;;40.60;1.00;;;;;;5092925;28;20036;-79
2022/07/13 13:01:30;;;;;;;4.55;1.80;;;40.30;1.00;;;;;;5093108;28;20039;-79
2022/07/13 13:03:57;;;;;;;3.80;1.88;;;40.40;1.00;;;;;;5093558;28;20050;-79
2022/07/13 13:06:23;;;;;;;1.63;1.50;;;40.70;1.00;;;;;;5093288;28;20067;-79
2022/07/13 13:08:48;;;;;;;3.47;1.70;;;40.50;1.00;;;;;;5095327;28;20020;-79
2022/07/13 13:11:14;;;;;;;4.00;1.85;;;40.60;1.00;;;;;;5092688;28;20476;-79
2022/07/13 13:13:40;;;;;;;3.33;1.95;;;40.90;1.00;;;;;;5093376;28;20028;-79